M I D A S
Marine Information and Data Acquisition System
Tripno 1889 of the Zeeleeuw from 2010-05-28 06:39:10 to 2010-05-28 13:46:39
Back to CruiseResearch ActivitiesStationsMapUnderway DataData graphs

EquipmentUnitsComment
TimeDGPSUTC
LatitudeDGPSDM.mWGS84
LongitudeDGPSDM.mWGS84
HeadingGyrodeg 
SOGDGPSknotsSpeed over ground
COGDGPSdegCourse over ground
DepthEcho soundermeters200 kHz
Missing or incorrect values are displayed as -999
Navigation data collected by the RV Zeeleeuw from 2010-05-28 06:24:11 to 2010-05-28 13:54:46
                                                                                    Next 1000 lines
Time Latitude Longitude Heading SOG COG Depth
2010-05-28 06:24:22 51°13.662 2°55.956 110.9 0.9 293 4.7
2010-05-28 06:24:27 51°13.662 2°55.953 111.2 1.2 291 4.7
2010-05-28 06:24:31 51°13.663 2°55.95 111.4 1.6 292 4.8
2010-05-28 06:24:37 51°13.665 2°55.945 111.6 2.1 290 4.9
2010-05-28 06:24:42 51°13.666 2°55.94 112 2.6 293 -999
2010-05-28 06:24:48 51°13.668 2°55.932 112.6 2.9 293 -999
2010-05-28 06:24:54 51°13.67 2°55.924 113.5 3.4 295 -999
2010-05-28 06:24:59 51°13.673 2°55.916 114 3.8 296 -999
2010-05-28 06:25:05 51°13.676 2°55.906 114.3 4.3 296 -999
2010-05-28 06:25:10 51°13.678 2°55.897 114.3 4.5 295 -999
2010-05-28 06:25:15 51°13.681 2°55.887 113.1 4.7 293 -999
2010-05-28 06:25:20 51°13.683 2°55.878 111.1 4.5 291 -999
2010-05-28 06:25:25 51°13.685 2°55.869 108.8 4.3 289 -999
2010-05-28 06:25:30 51°13.686 2°55.86 106.5 4.2 286 -999
2010-05-28 06:25:35 51°13.688 2°55.851 104.3 4.2 284 -999
2010-05-28 06:25:40 51°13.689 2°55.842 102.2 4.1 282 -999
2010-05-28 06:25:45 51°13.69 2°55.834 100.6 4 280 -999
2010-05-28 06:25:50 51°13.691 2°55.825 98.8 4 279 8.9
2010-05-28 06:25:55 51°13.691 2°55.816 96.5 4 277 -999
2010-05-28 06:26:00 51°13.692 2°55.808 94.4 3.8 275 -999
2010-05-28 06:26:05 51°13.692 2°55.8 92.5 3.7 273 -999
2010-05-28 06:26:10 51°13.692 2°55.792 90.7 3.6 272 -999
2010-05-28 06:26:15 51°13.692 2°55.784 89 3.5 271 -999
2010-05-28 06:26:21 51°13.692 2°55.776 87.8 3.4 271 -999
2010-05-28 06:26:25 51°13.692 2°55.77 87.2 3.2 270 10.7
2010-05-28 06:26:30 51°13.693 2°55.764 86.8 2.9 272 11
2010-05-28 06:26:35 51°13.693 2°55.758 86.7 2.5 275 11.4
2010-05-28 06:26:39 51°13.693 2°55.756 86.8 1.6 274 11.4
2010-05-28 06:26:44 51°13.693 2°55.753 86 1.1 280 10.9
2010-05-28 06:26:49 51°13.694 2°55.751 83.3 0.9 289 11
2010-05-28 06:26:54 51°13.694 2°55.75 78.5 0.7 293 11
2010-05-28 06:26:59 51°13.695 2°55.749 75.7 0.7 308 11.1
2010-05-28 06:27:03 51°13.695 2°55.748 71.6 0.5 322 11.2
2010-05-28 06:27:08 51°13.696 2°55.748 68.9 0.6 341 11.4
2010-05-28 06:27:13 51°13.697 2°55.748 65.1 0.6 2 11.2
2010-05-28 06:27:18 51°13.698 2°55.748 60.3 0.7 359 10.9
2010-05-28 06:27:23 51°13.698 2°55.748 57 0.6 359 10.8
2010-05-28 06:27:27 51°13.699 2°55.748 53 0.6 346 10.9
2010-05-28 06:27:33 51°13.699 2°55.747 50.7 0.4 309 10.9
2010-05-28 06:27:38 51°13.699 2°55.745 48.9 0.7 273 10.9
2010-05-28 06:27:42 51°13.699 2°55.744 46.5 0.9 251 10.8
2010-05-28 06:27:47 51°13.699 2°55.742 45.1 1.2 246 10.8
2010-05-28 06:27:52 51°13.698 2°55.739 43.4 1.3 238 11
2010-05-28 06:27:57 51°13.697 2°55.737 42.2 1.3 239 11.2
2010-05-28 06:28:02 51°13.696 2°55.734 41.2 1.1 239 11.1
2010-05-28 06:28:06 51°13.696 2°55.733 39.8 0.7 258 6.8
2010-05-28 06:28:11 51°13.696 2°55.733 38.5 0.4 319 4.8
2010-05-28 06:28:16 51°13.697 2°55.733 34.6 0.9 -999 4.9
2010-05-28 06:28:21 51°13.699 2°55.732 26.8 1.3 -999 11.1
2010-05-28 06:28:26 51°13.702 2°55.733 20 1.7 2 11.1
2010-05-28 06:28:31 51°13.704 2°55.732 14.5 1.9 359 11
2010-05-28 06:28:36 51°13.707 2°55.732 6.6 2.2 355 10.9
2010-05-28 06:28:41 51°13.711 2°55.731 0.7 2.5 351 11.1
2010-05-28 06:28:46 51°13.714 2°55.73 355.5 2.8 350 11.3
2010-05-28 06:28:51 51°13.718 2°55.729 351.4 3 347 11.5
2010-05-28 06:28:56 51°13.723 2°55.727 349.1 3.3 346 11.3
2010-05-28 06:29:01 51°13.728 2°55.724 346.3 3.9 341 10.9
2010-05-28 06:29:06 51°13.734 2°55.721 341.7 4.6 339 10.6
2010-05-28 06:29:11 51°13.74 2°55.715 338.4 5.2 335 10.3
2010-05-28 06:29:15 51°13.746 2°55.711 336.4 5.9 336 10
2010-05-28 06:29:21 51°13.755 2°55.704 335.7 6.4 335 9.6
2010-05-28 06:29:26 51°13.764 2°55.698 335.4 6.9 336 9.4
2010-05-28 06:29:31 51°13.773 2°55.691 335 7.2 333 9.6
2010-05-28 06:29:36 51°13.782 2°55.683 333.9 7.6 332 9.9
2010-05-28 06:29:41 51°13.792 2°55.674 332.3 7.9 330 9.7
2010-05-28 06:29:46 51°13.801 2°55.665 331.2 8.1 330 9.8
2010-05-28 06:29:51 51°13.811 2°55.656 331 8.4 330 9.7
2010-05-28 06:29:56 51°13.822 2°55.646 331.2 8.6 330 9.7
2010-05-28 06:30:01 51°13.832 2°55.637 331.8 8.8 331 9.7
2010-05-28 06:30:06 51°13.843 2°55.628 332.5 8.9 332 9.6
2010-05-28 06:30:11 51°13.854 2°55.618 333.5 9 333 9.6
2010-05-28 06:30:15 51°13.863 2°55.611 335.2 9.1 334 9.5
2010-05-28 06:30:21 51°13.877 2°55.601 336.3 9.2 335 9.6
2010-05-28 06:30:26 51°13.889 2°55.593 337.7 9.3 336 9.5
2010-05-28 06:30:31 51°13.9 2°55.584 337.9 9.3 335 9.6
2010-05-28 06:30:36 51°13.912 2°55.575 337.4 9.4 335 9.6
2010-05-28 06:30:41 51°13.924 2°55.566 336.5 9.5 334 9.6
2010-05-28 06:30:46 51°13.936 2°55.557 336 9.5 334 9.6
2010-05-28 06:30:51 51°13.948 2°55.547 335.4 9.6 333 9.5
2010-05-28 06:30:56 51°13.96 2°55.538 335.2 9.6 334 9.5
2010-05-28 06:31:01 51°13.972 2°55.529 335.9 9.6 335 9.5
2010-05-28 06:31:06 51°13.984 2°55.52 336.9 9.6 335 9.5
2010-05-28 06:31:11 51°13.996 2°55.512 336.9 9.6 335 9.5
2010-05-28 06:31:16 51°14.009 2°55.503 336.9 9.6 336 9.4
2010-05-28 06:31:21 51°14.021 2°55.494 337.2 9.7 336 9.3
2010-05-28 06:31:26 51°14.033 2°55.485 337.9 9.7 337 9.4
2010-05-28 06:31:31 51°14.045 2°55.477 338.4 9.7 337 9.5
2010-05-28 06:31:35 51°14.055 2°55.47 339.3 9.8 338 9.6
2010-05-28 06:31:41 51°14.07 2°55.46 340.2 9.8 338 9.5
2010-05-28 06:31:46 51°14.083 2°55.451 340 9.8 337 9.5
2010-05-28 06:31:51 51°14.096 2°55.442 339.3 9.8 337 9.6
2010-05-28 06:31:56 51°14.109 2°55.433 339.2 9.8 337 9.5
2010-05-28 06:32:01 51°14.121 2°55.424 339.6 9.8 337 9.5
2010-05-28 06:32:06 51°14.133 2°55.416 339.3 9.8 336 9.7
2010-05-28 06:32:11 51°14.146 2°55.407 338.1 9.8 336 9.4
2010-05-28 06:32:16 51°14.159 2°55.398 337.4 9.7 335 9.5
2010-05-28 06:32:21 51°14.171 2°55.389 336.8 9.6 335 9.5
2010-05-28 06:32:26 51°14.182 2°55.38 336.1 9.5 334 9.4
2010-05-28 06:32:32 51°14.196 2°55.369 335.4 9.4 333 9.4
2010-05-28 06:32:37 51°14.207 2°55.36 334.4 9 332 9.6
2010-05-28 06:32:42 51°14.217 2°55.351 333.3 8.6 330 9.6
2010-05-28 06:32:47 51°14.226 2°55.342 332.3 8.1 331 9
2010-05-28 06:32:51 51°14.234 2°55.335 331.9 7.8 330 9.1
2010-05-28 06:32:56 51°14.242 2°55.327 331.6 7.4 330 8.8
2010-05-28 06:33:02 51°14.252 2°55.318 330.9 7.1 329 9
2010-05-28 06:33:07 51°14.26 2°55.31 330.2 6.8 329 9
2010-05-28 06:33:11 51°14.266 2°55.304 329.6 6.5 328 9.1
2010-05-28 06:33:17 51°14.275 2°55.295 328.8 6.3 327 9.2
2010-05-28 06:33:21 51°14.28 2°55.29 327.6 6 326 9.1
2010-05-28 06:33:27 51°14.288 2°55.281 326.5 5.7 325 -999
2010-05-28 06:33:32 51°14.294 2°55.274 325.4 5.5 324 9.4
2010-05-28 06:33:36 51°14.299 2°55.268 324.5 5.3 323 9.3
2010-05-28 06:33:41 51°14.304 2°55.261 323.9 5.1 323 9.3
2010-05-28 06:33:47 51°14.311 2°55.253 323.2 4.9 322 9.4
2010-05-28 06:33:52 51°14.316 2°55.247 323 4.7 323 9.5
2010-05-28 06:33:56 51°14.32 2°55.242 324 4.5 324 9.4
2010-05-28 06:34:01 51°14.325 2°55.237 325.7 4.2 326 9.2
2010-05-28 06:34:06 51°14.33 2°55.233 327.4 4.1 328 9.2
2010-05-28 06:34:12 51°14.335 2°55.227 329.2 3.9 329 9.1
2010-05-28 06:34:17 51°14.34 2°55.224 331.1 3.7 331 9.5
2010-05-28 06:34:21 51°14.343 2°55.221 333 3.7 333 9.5
2010-05-28 06:34:27 51°14.349 2°55.216 334.7 3.9 335 9.1
2010-05-28 06:34:32 51°14.355 2°55.212 336.1 4.2 336 9.4
2010-05-28 06:34:37 51°14.361 2°55.208 336.9 4.5 336 9.1
2010-05-28 06:34:41 51°14.365 2°55.205 337.1 4.7 336 9.3
2010-05-28 06:34:47 51°14.373 2°55.2 337.1 5 337 9.5
2010-05-28 06:34:51 51°14.379 2°55.195 336.8 5.1 336 9.3
2010-05-28 06:34:56 51°14.385 2°55.19 336.3 5.4 335 9.4
2010-05-28 06:35:01 51°14.392 2°55.184 335.9 5.6 335 9.4
2010-05-28 06:35:07 51°14.402 2°55.178 335.3 6 335 9.4
2010-05-28 06:35:12 51°14.41 2°55.172 334.6 6.4 335 9.4
2010-05-28 06:35:16 51°14.417 2°55.167 334.4 6.9 335 9.3
2010-05-28 06:35:22 51°14.428 2°55.159 335.7 7.5 337 9.3
2010-05-28 06:35:27 51°14.439 2°55.152 337.6 8 338 9.4
2010-05-28 06:35:31 51°14.447 2°55.146 338 8.5 337 9
2010-05-28 06:35:36 51°14.458 2°55.139 337.5 9 336 8.9
2010-05-28 06:35:41 51°14.47 2°55.129 336.5 9.6 334 8.9
2010-05-28 06:35:47 51°14.485 2°55.117 335.2 10.1 332 8.6
2010-05-28 06:35:52 51°14.498 2°55.105 333.6 10.5 331 8.5
2010-05-28 06:35:56 51°14.508 2°55.095 332.2 10.9 329 8.7
2010-05-28 06:36:01 51°14.521 2°55.081 330.1 11.2 326 8.7
2010-05-28 06:36:07 51°14.536 2°55.062 328.2 11.6 320 9.4
2010-05-28 06:36:12 51°14.548 2°55.044 324.9 12 317 9.7
2010-05-28 06:36:16 51°14.558 2°55.028 322.3 12.4 315 10.3
2010-05-28 06:36:21 51°14.57 2°55.008 320.9 12.8 314 10
2010-05-28 06:36:27 51°14.586 2°54.984 320.5 12.9 316 10.2
2010-05-28 06:36:32 51°14.6 2°54.966 323.3 12.9 320 10.1
2010-05-28 06:36:36 51°14.611 2°54.953 327.8 12.9 324 9.9
2010-05-28 06:36:41 51°14.627 2°54.938 331.9 12.9 328 9.9
2010-05-28 06:36:46 51°14.642 2°54.925 336.1 12.9 332 10
2010-05-28 06:36:52 51°14.661 2°54.909 339 12.9 332 10.1
2010-05-28 06:36:57 51°14.677 2°54.896 340 13 333 10.1
2010-05-28 06:37:01 51°14.69 2°54.885 340 13.1 332 10.5
2010-05-28 06:37:07 51°14.71 2°54.868 339.7 13.1 333 10.1
2010-05-28 06:37:11 51°14.723 2°54.858 339.8 13.1 332 10.2
2010-05-28 06:37:16 51°14.738 2°54.844 339.7 13.1 332 10.2
2010-05-28 06:37:21 51°14.754 2°54.831 339.6 13.1 332 10.5
2010-05-28 06:37:27 51°14.773 2°54.814 338.4 13.1 330 10.3
2010-05-28 06:37:32 51°14.789 2°54.799 337.8 13 330 9.5
2010-05-28 06:37:36 51°14.801 2°54.786 336.5 13.1 327 9.3
2010-05-28 06:37:42 51°14.819 2°54.767 334.9 13 326 9
2010-05-28 06:37:47 51°14.834 2°54.75 333 13.1 324 8.6
2010-05-28 06:37:52 51°14.848 2°54.732 331.7 13.1 322 8.8
2010-05-28 06:37:56 51°14.859 2°54.717 330.2 13.1 321 8.7
2010-05-28 06:38:01 51°14.873 2°54.699 328.3 13.2 320 9.4
2010-05-28 06:38:07 51°14.89 2°54.675 327 13.3 319 9.8
2010-05-28 06:38:12 51°14.904 2°54.656 325.9 13.4 319 10.2
2010-05-28 06:38:16 51°14.915 2°54.641 325.2 13.4 318 10.1
2010-05-28 06:38:21 51°14.929 2°54.621 324.4 13.4 319 10.2
2010-05-28 06:38:27 51°14.946 2°54.598 324.5 13.4 319 9
2010-05-28 06:38:31 51°14.957 2°54.583 325.1 13.2 320 8.2
2010-05-28 06:38:36 51°14.971 2°54.565 326 13 321 8.1
2010-05-28 06:38:41 51°14.985 2°54.547 326.6 12.9 321 8.2
2010-05-28 06:38:46 51°14.999 2°54.53 327.6 12.8 323 8
2010-05-28 06:38:51 51°15.013 2°54.512 328.6 13 322 8.1
2010-05-28 06:38:56 51°15.028 2°54.495 328.8 13 323 8.2
2010-05-28 06:39:01 51°15.042 2°54.477 329.1 13 322 8.2
2010-05-28 06:39:06 51°15.056 2°54.46 329.3 13 322 8.2
2010-05-28 06:39:11 51°15.07 2°54.442 329.3 13 322 8.2
2010-05-28 06:39:16 51°15.084 2°54.424 329 13 322 8.3
2010-05-28 06:39:21 51°15.098 2°54.406 329.1 13.1 322 8.4
2010-05-28 06:39:26 51°15.112 2°54.388 329 13.1 321 8.2
2010-05-28 06:39:31 51°15.126 2°54.37 328.4 13.1 322 8.4
2010-05-28 06:39:36 51°15.141 2°54.351 328.8 13.2 321 8.4
2010-05-28 06:39:41 51°15.155 2°54.333 328.8 13.2 322 8.5
2010-05-28 06:39:46 51°15.17 2°54.315 329.2 13.2 321 8.6
2010-05-28 06:39:51 51°15.184 2°54.297 329 13.3 322 8.6
2010-05-28 06:39:56 51°15.199 2°54.279 329.6 13.3 322 8.6
2010-05-28 06:40:01 51°15.213 2°54.261 329.8 13.3 322 8.7
2010-05-28 06:40:06 51°15.228 2°54.243 330 13.2 323 8.7
2010-05-28 06:40:11 51°15.242 2°54.226 330.3 13.3 323 8.7
2010-05-28 06:40:16 51°15.257 2°54.208 330.6 13.3 323 8.6
2010-05-28 06:40:21 51°15.271 2°54.19 330.4 13.3 321 8.9
2010-05-28 06:40:27 51°15.289 2°54.168 329.7 13.3 322 8.9
2010-05-28 06:40:31 51°15.3 2°54.153 329.1 13.4 320 9
2010-05-28 06:40:36 51°15.314 2°54.134 328.6 13.3 321 9
2010-05-28 06:40:41 51°15.328 2°54.115 328 13.4 320 8.9
2010-05-28 06:40:46 51°15.343 2°54.096 327.7 13.4 320 9
2010-05-28 06:40:51 51°15.357 2°54.077 327.6 13.4 320 9
2010-05-28 06:40:56 51°15.371 2°54.058 327.5 13.4 320 8.9
2010-05-28 06:41:01 51°15.386 2°54.039 327.6 13.4 320 9
2010-05-28 06:41:06 51°15.4 2°54.02 328 13.4 321 9.1
2010-05-28 06:41:11 51°15.414 2°54.002 328.2 13.5 321 9.2
2010-05-28 06:41:16 51°15.429 2°53.983 328.2 13.4 321 9.1
2010-05-28 06:41:21 51°15.443 2°53.964 328.1 13.5 321 9.4
2010-05-28 06:41:26 51°15.458 2°53.946 328.1 13.4 321 9.3
2010-05-28 06:41:31 51°15.472 2°53.927 328.3 13.4 321 9.3
2010-05-28 06:41:36 51°15.487 2°53.908 328.5 13.4 321 9.3
2010-05-28 06:41:41 51°15.501 2°53.889 328.4 13.4 321 9.5
2010-05-28 06:41:46 51°15.516 2°53.871 328.5 13.4 321 9.4
2010-05-28 06:41:51 51°15.53 2°53.852 328.7 13.4 321 9.5
2010-05-28 06:41:56 51°15.544 2°53.833 328.6 13.4 320 9.6
2010-05-28 06:42:01 51°15.559 2°53.814 328.2 13.4 320 9.5
2010-05-28 06:42:06 51°15.573 2°53.796 328.4 13.4 321 9.6
2010-05-28 06:42:11 51°15.588 2°53.776 328.1 13.5 320 9.9
2010-05-28 06:42:16 51°15.602 2°53.757 327.8 13.5 320 9.8
2010-05-28 06:42:21 51°15.616 2°53.738 327.5 13.5 320 9.7
2010-05-28 06:42:26 51°15.63 2°53.719 327.4 13.5 320 9.8
2010-05-28 06:42:31 51°15.645 2°53.7 327.4 13.4 320 9.8
2010-05-28 06:42:36 51°15.659 2°53.681 327.4 13.4 320 9.8
2010-05-28 06:42:41 51°15.673 2°53.662 327.4 13.4 320 9.9
2010-05-28 06:42:47 51°15.69 2°53.639 327.4 13.5 320 10
2010-05-28 06:42:51 51°15.702 2°53.624 327.5 13.4 320 10
2010-05-28 06:42:56 51°15.716 2°53.605 327.4 13.5 320 10.1
2010-05-28 06:43:01 51°15.731 2°53.586 327.2 13.4 320 10.1
2010-05-28 06:43:06 51°15.745 2°53.567 327.3 13.4 320 10
2010-05-28 06:43:11 51°15.759 2°53.547 326.6 13.4 319 10.3
2010-05-28 06:43:16 51°15.773 2°53.529 326.9 13.3 321 10.3
2010-05-28 06:43:21 51°15.788 2°53.51 327.6 13.4 321 10.3
2010-05-28 06:43:26 51°15.802 2°53.492 328.4 13.4 322 10.3
2010-05-28 06:43:31 51°15.817 2°53.474 329.1 13.4 322 10.2
2010-05-28 06:43:36 51°15.832 2°53.457 329.8 13.3 324 10.1
2010-05-28 06:43:41 51°15.847 2°53.44 331.1 13.3 324 10.2
2010-05-28 06:43:46 51°15.862 2°53.424 332.1 13.2 327 10.3
2010-05-28 06:43:51 51°15.878 2°53.407 332.9 13.2 325 10.2
2010-05-28 06:43:56 51°15.893 2°53.393 334.7 13.1 330 10.2
2010-05-28 06:44:01 51°15.909 2°53.378 335.8 13.1 328 10.2
2010-05-28 06:44:06 51°15.924 2°53.364 336.5 13.1 332 10.3
2010-05-28 06:44:11 51°15.94 2°53.349 337.6 13.1 330 10.3
2010-05-28 06:44:16 51°15.957 2°53.337 338.5 13.1 333 10.3
2010-05-28 06:44:21 51°15.972 2°53.323 339.8 13.1 331 10.2
2010-05-28 06:44:26 51°15.989 2°53.311 340.8 13 336 10.5
2010-05-28 06:44:31 51°16.005 2°53.297 341 13 332 10.3
2010-05-28 06:44:36 51°16.021 2°53.285 341.4 13 335 10.3
2010-05-28 06:44:41 51°16.037 2°53.272 341.7 13 334 10.4
2010-05-28 06:44:47 51°16.057 2°53.258 341.9 13 336 10.4
2010-05-28 06:44:51 51°16.07 2°53.248 342.4 13 334 10.4
2010-05-28 06:44:56 51°16.086 2°53.236 342.1 13 335 10.4
2010-05-28 06:45:01 51°16.102 2°53.223 342.1 13 335 10.6
2010-05-28 06:45:07 51°16.122 2°53.208 342.1 12.9 335 10.3
2010-05-28 06:45:11 51°16.135 2°53.199 342.5 13 335 10.5
2010-05-28 06:45:16 51°16.151 2°53.186 342.5 13 334 10.6
2010-05-28 06:45:21 51°16.167 2°53.174 342.1 13 335 10.6
2010-05-28 06:45:26 51°16.183 2°53.162 342 12.9 334 10.2
2010-05-28 06:45:31 51°16.199 2°53.15 342.4 12.9 335 10.5
2010-05-28 06:45:36 51°16.215 2°53.137 342 13 334 10.5
2010-05-28 06:45:41 51°16.232 2°53.125 342 12.9 334 10.4
2010-05-28 06:45:46 51°16.248 2°53.112 341.2 13 334 10.5
2010-05-28 06:45:51 51°16.264 2°53.1 342.4 12.9 334 10.5
2010-05-28 06:45:56 51°16.28 2°53.086 341.9 13 333 10.6
2010-05-28 06:46:01 51°16.296 2°53.074 342.1 12.9 334 10.6
2010-05-28 06:46:06 51°16.312 2°53.061 342.3 12.9 334 10.5
2010-05-28 06:46:11 51°16.328 2°53.049 342.7 12.9 334 10.5
2010-05-28 06:46:16 51°16.345 2°53.037 342.6 13 334 10.6
2010-05-28 06:46:21 51°16.361 2°53.024 342.4 13 334 10.4
2010-05-28 06:46:26 51°16.377 2°53.011 342.2 13 334 10.5
2010-05-28 06:46:31 51°16.393 2°52.999 341.9 13 334 10.3
2010-05-28 06:46:36 51°16.409 2°52.986 341.9 13 334 10.3
2010-05-28 06:46:41 51°16.425 2°52.973 341.9 12.9 334 10.3
2010-05-28 06:46:46 51°16.441 2°52.961 341.9 13 334 10.4
2010-05-28 06:46:51 51°16.457 2°52.949 342.3 12.9 334 10.4
2010-05-28 06:46:56 51°16.473 2°52.936 342.1 12.9 334 10.4
2010-05-28 06:47:01 51°16.49 2°52.924 342.1 13 334 10.2
2010-05-28 06:47:07 51°16.509 2°52.908 342.1 13 334 10
2010-05-28 06:47:11 51°16.522 2°52.899 341.9 12.9 335 9.9
2010-05-28 06:47:16 51°16.538 2°52.887 342.2 12.8 337 10.1
2010-05-28 06:47:21 51°16.555 2°52.876 342.7 12.8 337 9.9
2010-05-28 06:47:26 51°16.571 2°52.865 342.7 12.9 337 9.9
2010-05-28 06:47:31 51°16.587 2°52.853 342.2 12.8 336 9.8
2010-05-28 06:47:36 51°16.604 2°52.842 341.9 12.9 336 9.8
2010-05-28 06:47:41 51°16.62 2°52.83 341.6 12.9 336 9.6
2010-05-28 06:47:46 51°16.636 2°52.819 341.2 12.8 336 9.7
2010-05-28 06:47:52 51°16.655 2°52.805 341.2 12.8 336 9.5
2010-05-28 06:47:56 51°16.668 2°52.796 341.2 12.8 336 9.5
2010-05-28 06:48:01 51°16.685 2°52.784 341.4 12.8 336 9.4
2010-05-28 06:48:06 51°16.701 2°52.772 341.3 12.8 335 9.4
2010-05-28 06:48:11 51°16.717 2°52.761 341.4 12.7 336 9
2010-05-28 06:48:16 51°16.733 2°52.749 341.4 12.7 335 8.8
2010-05-28 06:48:21 51°16.749 2°52.737 341.1 12.6 335 8.4
2010-05-28 06:48:26 51°16.764 2°52.725 341.2 12.6 335 8.3
2010-05-28 06:48:31 51°16.78 2°52.714 341.2 12.4 335 8.1
2010-05-28 06:48:36 51°16.796 2°52.703 341.4 12.4 336 8.3
2010-05-28 06:48:41 51°16.811 2°52.691 341.5 12.4 336 8.2
2010-05-28 06:48:46 51°16.827 2°52.681 342.2 12.4 336 8.3
2010-05-28 06:48:51 51°16.843 2°52.67 342.4 12.4 337 8.1
2010-05-28 06:48:56 51°16.859 2°52.659 343 12.4 337 8.1
2010-05-28 06:49:01 51°16.874 2°52.649 343.5 12.3 338 8.2
2010-05-28 06:49:06 51°16.89 2°52.638 343.8 12.4 338 8.2
2010-05-28 06:49:11 51°16.906 2°52.628 344.1 12.4 338 8.3
2010-05-28 06:49:16 51°16.923 2°52.618 344.1 12.5 338 8.4
2010-05-28 06:49:21 51°16.939 2°52.608 344.1 12.6 338 8.4
2010-05-28 06:49:26 51°16.955 2°52.598 344.2 12.6 339 8.3
2010-05-28 06:49:31 51°16.971 2°52.589 344.9 12.6 342 8.6
2010-05-28 06:49:36 51°16.988 2°52.581 347.2 12.5 343 8.4
2010-05-28 06:49:40 51°17.002 2°52.575 349.7 12.5 346 8.3
2010-05-28 06:49:46 51°17.022 2°52.569 351.4 12.4 349 8.3
2010-05-28 06:49:51 51°17.039 2°52.563 353.4 12.4 348 8.1
2010-05-28 06:49:56 51°17.055 2°52.561 355.3 12.2 354 8.1
2010-05-28 06:50:01 51°17.072 2°52.557 357.4 12.1 353 8.1
2010-05-28 06:50:06 51°17.088 2°52.556 359.2 12 357 8.1
2010-05-28 06:50:11 51°17.105 2°52.555 1.5 12 358 8.2
2010-05-28 06:50:16 51°17.122 2°52.554 3.1 12 359 8.3
2010-05-28 06:50:21 51°17.138 2°52.554 3.8 12 359 8.2
2010-05-28 06:50:26 51°17.155 2°52.554 4.6 11.9 359 8
2010-05-28 06:50:31 51°17.171 2°52.554 5.5 11.9 2 8.3
2010-05-28 06:50:36 51°17.188 2°52.554 5.7 11.8 1 8.3
2010-05-28 06:50:41 51°17.204 2°52.555 6 11.8 2 8.3
2010-05-28 06:50:47 51°17.224 2°52.556 6.5 11.8 2 8.4
2010-05-28 06:50:51 51°17.237 2°52.558 6.7 11.8 4 8.4
2010-05-28 06:50:56 51°17.253 2°52.562 9.2 11.6 11 8.5
2010-05-28 06:51:01 51°17.268 2°52.567 13.9 11.5 12 8.6
2010-05-28 06:51:07 51°17.286 2°52.576 16.7 11.4 16 8.4
2010-05-28 06:51:11 51°17.298 2°52.581 19.5 11.4 17 8.3
2010-05-28 06:51:16 51°17.313 2°52.591 21.5 11.3 21 8.6
2010-05-28 06:51:21 51°17.328 2°52.599 22.6 11.1 20 8.6
2010-05-28 06:51:27 51°17.344 2°52.611 24.8 11 25 8.7
2010-05-28 06:51:31 51°17.355 2°52.62 27.7 11 28 8.5
2010-05-28 06:51:36 51°17.368 2°52.632 29.7 10.9 28 8.4
2010-05-28 06:51:41 51°17.381 2°52.644 31.3 10.8 31 8.5
2010-05-28 06:51:47 51°17.397 2°52.658 32.4 10.7 31 8.8
2010-05-28 06:51:51 51°17.407 2°52.669 33.7 10.7 34 8.8
2010-05-28 06:51:56 51°17.419 2°52.682 35.4 10.7 33 8.7
2010-05-28 06:52:01 51°17.431 2°52.696 36.9 10.7 36 8.9
2010-05-28 06:52:06 51°17.443 2°52.709 36.5 10.6 35 8.8
2010-05-28 06:52:11 51°17.454 2°52.724 37.4 10.6 37 8.5
2010-05-28 06:52:16 51°17.466 2°52.737 38.4 10.7 35 8.7
2010-05-28 06:52:21 51°17.478 2°52.752 37.9 10.7 37 8.8
2010-05-28 06:52:27 51°17.493 2°52.768 38 10.6 35 8.8
2010-05-28 06:52:31 51°17.502 2°52.779 37.5 10.6 36 8.7
2010-05-28 06:52:36 51°17.514 2°52.793 37.1 10.7 36 9
2010-05-28 06:52:41 51°17.526 2°52.806 37.5 10.6 36 8.8
2010-05-28 06:52:47 51°17.541 2°52.823 37.8 10.6 36 8.9
2010-05-28 06:52:51 51°17.55 2°52.834 37.5 10.6 37 8.8
2010-05-28 06:52:56 51°17.562 2°52.848 38.6 10.6 36 8.8
2010-05-28 06:53:01 51°17.574 2°52.862 38.1 10.5 38 8.9
2010-05-28 06:53:07 51°17.587 2°52.879 39 10.2 39 8.8
2010-05-28 06:53:11 51°17.595 2°52.89 39.9 10 38 8.9
2010-05-28 06:53:16 51°17.606 2°52.904 39.9 9.9 39 8.6
2010-05-28 06:53:21 51°17.616 2°52.917 41 9.3 39 8.7
2010-05-28 06:53:27 51°17.627 2°52.932 40.9 8.9 40 8.7
2010-05-28 06:53:31 51°17.635 2°52.941 41.2 8.4 39 8.8
2010-05-28 06:53:36 51°17.643 2°52.952 40.7 7.9 40 8.9
2010-05-28 06:53:41 51°17.651 2°52.962 39.8 7.4 37 8.8
2010-05-28 06:53:46 51°17.659 2°52.971 38.4 6.9 36 8.7
2010-05-28 06:53:51 51°17.666 2°52.979 37.3 6.5 35 8.9
2010-05-28 06:53:56 51°17.674 2°52.987 35.8 6.2 33 9
2010-05-28 06:54:01 51°17.681 2°52.993 34.4 5.8 31 9
2010-05-28 06:54:06 51°17.687 2°53 33.1 5.5 31 9
2010-05-28 06:54:11 51°17.693 2°53.005 31.4 5.3 28 8.9
2010-05-28 06:54:16 51°17.699 2°53.011 29.9 5 27 8.9
2010-05-28 06:54:20 51°17.704 2°53.014 28.5 4.8 25 8.9
2010-05-28 06:54:26 51°17.711 2°53.019 27.2 4.6 23 8.8
2010-05-28 06:54:31 51°17.717 2°53.023 26.4 4.4 24 9
2010-05-28 06:54:36 51°17.722 2°53.027 25.8 4.2 24 9
2010-05-28 06:54:41 51°17.727 2°53.03 25.2 4 20 9
2010-05-28 06:54:46 51°17.732 2°53.033 24.8 3.9 22 9.1
2010-05-28 06:54:51 51°17.737 2°53.036 24.3 3.7 21 9
2010-05-28 06:54:56 51°17.742 2°53.039 23.8 3.6 20 9
2010-05-28 06:55:01 51°17.746 2°53.041 23.5 3.5 20 9.1
2010-05-28 06:55:06 51°17.751 2°53.044 23.1 3.4 19 8.9
2010-05-28 06:55:11 51°17.755 2°53.046 22.9 3.3 21 9.1
2010-05-28 06:55:16 51°17.759 2°53.048 22.4 3.2 18 8.8
2010-05-28 06:55:21 51°17.763 2°53.051 22.1 3.1 19 9
2010-05-28 06:55:27 51°17.768 2°53.053 21.8 3 19 8.9
2010-05-28 06:55:31 51°17.771 2°53.054 21.6 2.9 16 8.9
2010-05-28 06:55:36 51°17.775 2°53.057 21.8 2.8 20 9
2010-05-28 06:55:41 51°17.778 2°53.058 21.4 2.7 14 9
2010-05-28 06:55:46 51°17.782 2°53.06 21.2 2.7 18 9.3
2010-05-28 06:55:51 51°17.785 2°53.062 21 2.6 16 9
2010-05-28 06:55:56 51°17.789 2°53.063 20.5 2.6 15 9.1
2010-05-28 06:56:01 51°17.792 2°53.065 20.4 2.5 15 9.1
2010-05-28 06:56:07 51°17.796 2°53.067 20.2 2.5 15 8.9
2010-05-28 06:56:11 51°17.799 2°53.068 20.2 2.4 16 9.2
2010-05-28 06:56:16 51°17.802 2°53.069 19.8 2.4 14 9.1
2010-05-28 06:56:21 51°17.805 2°53.07 19.6 2.4 14 9.1
2010-05-28 06:56:26 51°17.808 2°53.071 19.1 2.4 12 9
2010-05-28 06:56:31 51°17.811 2°53.073 18.5 2.4 12 9
2010-05-28 06:56:36 51°17.814 2°53.074 18.6 2.4 13 9.2
2010-05-28 06:56:41 51°17.818 2°53.075 18.2 2.4 11 9.1
2010-05-28 06:56:46 51°17.821 2°53.075 18.2 2.4 5 9.3
2010-05-28 06:56:51 51°17.824 2°53.077 17.7 2.3 14 9.1
2010-05-28 06:56:56 51°17.827 2°53.077 17.4 2.4 7 9.1
2010-05-28 06:57:01 51°17.83 2°53.079 17.2 2.5 15 9.1
2010-05-28 06:57:07 51°17.835 2°53.08 17.2 2.7 12 9
2010-05-28 06:57:11 51°17.838 2°53.081 17.6 2.9 15 9.2
2010-05-28 06:57:16 51°17.842 2°53.083 20 3 17 9.1
2010-05-28 06:57:21 51°17.846 2°53.086 22.6 3.4 23 9.1
2010-05-28 06:57:27 51°17.852 2°53.091 26.2 3.7 25 9.3
2010-05-28 06:57:31 51°17.855 2°53.095 30.6 3.9 35 9.1
2010-05-28 06:57:36 51°17.86 2°53.101 35.1 4.2 36 9.3
2010-05-28 06:57:41 51°17.865 2°53.108 39.5 4.7 45 9.2
2010-05-28 06:57:47 51°17.871 2°53.117 41.5 5.2 40 9.1
2010-05-28 06:57:51 51°17.876 2°53.124 42.2 5.7 43 9.1
2010-05-28 06:57:56 51°17.882 2°53.133 41.5 6 42 9.2
2010-05-28 06:58:01 51°17.889 2°53.141 40.7 6.1 39 9.2
2010-05-28 06:58:07 51°17.897 2°53.152 39.5 6.1 40 9.3
2010-05-28 06:58:11 51°17.902 2°53.158 38.2 6 35 9.3
2010-05-28 06:58:16 51°17.909 2°53.165 36.9 5.8 36 9.1
2010-05-28 06:58:21 51°17.915 2°53.172 35.1 5.5 31 9.1
2010-05-28 06:58:27 51°17.922 2°53.179 33.2 5.2 31 9.2
2010-05-28 06:58:31 51°17.928 2°53.182 31.1 4.9 26 9
2010-05-28 06:58:36 51°17.933 2°53.187 29.1 4.4 24 9.1
2010-05-28 06:58:41 51°17.938 2°53.19 27.1 4.2 20 9.2
2010-05-28 06:58:46 51°17.943 2°53.192 24.4 3.8 17 9.2
2010-05-28 06:58:51 51°17.948 2°53.194 21.6 3.4 13 9.2
2010-05-28 06:58:56 51°17.952 2°53.195 19 2.8 10 9.4
2010-05-28 06:59:01 51°17.955 2°53.196 16.3 2.4 6 9.5
2010-05-28 06:59:07 51°17.958 2°53.196 13.9 2 2 9.2
2010-05-28 06:59:11 51°17.96 2°53.196 12.4 1.6 1 9.1
2010-05-28 06:59:16 51°17.962 2°53.196 11.1 1.1 351 9.3
2010-05-28 06:59:21 51°17.962 2°53.196 10.2 0.6 344 9.4
2010-05-28 06:59:26 51°17.963 2°53.195 9.8 0.3 321 9.4
2010-05-28 06:59:31 51°17.963 2°53.195 9.3 0.3 265 9.3
2010-05-28 06:59:36 51°17.962 2°53.194 9.2 0.2 250 9.5
2010-05-28 06:59:40 51°17.962 2°53.193 9.1 0.2 252 9.4
2010-05-28 06:59:46 51°17.962 2°53.193 8.3 0.2 248 9.2
2010-05-28 06:59:51 51°17.962 2°53.193 8.1 0.3 232 9.3
2010-05-28 06:59:56 51°17.962 2°53.192 7.3 0.3 246 9.3
2010-05-28 07:00:01 51°17.962 2°53.192 6.5 0.3 230 9.4
2010-05-28 07:00:06 51°17.961 2°53.191 5.4 0.4 233 9.3
2010-05-28 07:00:11 51°17.961 2°53.19 4.4 0.4 230 9.4
2010-05-28 07:00:16 51°17.961 2°53.19 3.5 0.4 232 9.3
2010-05-28 07:00:21 51°17.96 2°53.189 3 0.4 223 9.4
2010-05-28 07:00:27 51°17.96 2°53.188 1.6 0.5 233 9.2
2010-05-28 07:00:31 51°17.959 2°53.188 1.5 0.4 210 9.5
2010-05-28 07:00:36 51°17.959 2°53.186 0.5 0.6 233 9.3
2010-05-28 07:00:41 51°17.958 2°53.186 0.1 0.5 219 9.4
2010-05-28 07:00:47 51°17.958 2°53.185 359.4 0.6 225 9.5
2010-05-28 07:00:51 51°17.957 2°53.184 358.4 0.6 224 9.5
2010-05-28 07:00:56 51°17.956 2°53.183 357.5 0.6 220 9.3
2010-05-28 07:01:01 51°17.956 2°53.182 356.9 0.6 224 9.2
2010-05-28 07:01:06 51°17.955 2°53.181 356.5 0.6 217 9.5
2010-05-28 07:01:11 51°17.954 2°53.18 355.8 0.6 218 9.3
2010-05-28 07:01:16 51°17.954 2°53.179 355.5 0.7 218 9.3
2010-05-28 07:01:21 51°17.953 2°53.178 355.2 0.7 217 9.4
2010-05-28 07:01:26 51°17.952 2°53.178 354.8 0.6 217 9.4
2010-05-28 07:01:31 51°17.951 2°53.177 354.7 0.7 222 9.3
2010-05-28 07:01:36 51°17.95 2°53.176 354.4 0.6 209 9.2
2010-05-28 07:01:41 51°17.95 2°53.175 354.3 0.8 220 9.3
2010-05-28 07:01:46 51°17.949 2°53.174 354.3 0.7 211 9.4
2010-05-28 07:01:51 51°17.948 2°53.173 354.4 0.8 214 9.3
2010-05-28 07:01:56 51°17.947 2°53.172 354.3 0.7 211 9.3
2010-05-28 07:02:01 51°17.946 2°53.171 354.1 0.8 212 9.4
2010-05-28 07:02:07 51°17.945 2°53.17 353.9 0.8 212 9.5
2010-05-28 07:02:11 51°17.945 2°53.17 353.8 0.8 209 9.3
2010-05-28 07:02:16 51°17.944 2°53.169 353.8 0.8 214 9.2
2010-05-28 07:02:21 51°17.943 2°53.168 353.4 0.8 210 9.5
2010-05-28 07:02:27 51°17.941 2°53.167 353.2 0.8 208 9.4
2010-05-28 07:02:31 51°17.941 2°53.166 352.7 0.8 207 9.3
2010-05-28 07:02:36 51°17.94 2°53.165 352.5 0.9 208 9.2
2010-05-28 07:02:41 51°17.938 2°53.165 352.6 0.9 206 9.4
2010-05-28 07:02:47 51°17.937 2°53.164 352.7 0.8 207 9.4
2010-05-28 07:02:51 51°17.936 2°53.163 352.5 0.8 201 9.1
2010-05-28 07:02:56 51°17.935 2°53.163 352.3 0.9 200 9.4
2010-05-28 07:03:01 51°17.934 2°53.162 352.6 0.8 199 9.5
2010-05-28 07:03:06 51°17.933 2°53.161 352.7 0.9 205 9.2
2010-05-28 07:03:11 51°17.932 2°53.16 352.7 0.9 199 9.3
2010-05-28 07:03:16 51°17.93 2°53.16 352.8 0.9 203 9.4
2010-05-28 07:03:21 51°17.929 2°53.159 352.8 0.9 195 9.5
2010-05-28 07:03:26 51°17.928 2°53.159 353.2 0.9 204 9.1
2010-05-28 07:03:31 51°17.927 2°53.158 353.4 0.9 193 9.4
2010-05-28 07:03:36 51°17.926 2°53.157 353.8 1 201 9.4
2010-05-28 07:03:41 51°17.925 2°53.157 354.3 0.8 192 9.6
2010-05-28 07:03:47 51°17.923 2°53.156 354.5 0.9 201 9.4
2010-05-28 07:03:51 51°17.922 2°53.156 354.3 0.9 199 9.4
2010-05-28 07:03:56 51°17.921 2°53.155 354.5 1 201 9.3
2010-05-28 07:04:01 51°17.92 2°53.154 354.9 1 202 9.3
2010-05-28 07:04:07 51°17.918 2°53.153 355.1 0.9 197 9.4
2010-05-28 07:04:11 51°17.917 2°53.153 355.2 0.9 200 9.3
2010-05-28 07:04:16 51°17.916 2°53.152 354.8 0.9 195 9.3
2010-05-28 07:04:21 51°17.915 2°53.151 354.9 1 201 9.2
2010-05-28 07:04:27 51°17.913 2°53.151 354.7 0.9 193 9.3
2010-05-28 07:04:31 51°17.912 2°53.15 354.6 1 200 9.2
2010-05-28 07:04:36 51°17.911 2°53.149 354.8 0.9 194 9.4
2010-05-28 07:04:41 51°17.909 2°53.148 354.7 1 200 9.1
2010-05-28 07:04:46 51°17.908 2°53.148 354.4 1 196 9.3
2010-05-28 07:04:51 51°17.907 2°53.147 354.7 1 198 9.1
2010-05-28 07:04:56 51°17.906 2°53.147 354.9 1 196 9.3
2010-05-28 07:05:01 51°17.904 2°53.146 355.2 1 201 9.4
2010-05-28 07:05:06 51°17.903 2°53.145 355.4 1 198 9.3
2010-05-28 07:05:11 51°17.901 2°53.145 355.7 1 199 9.2
2010-05-28 07:05:16 51°17.9 2°53.144 355.6 1 193 9.2
2010-05-28 07:05:21 51°17.899 2°53.143 356 1.1 199 9.4
2010-05-28 07:05:26 51°17.897 2°53.143 356.7 0.9 188 9.4
2010-05-28 07:05:31 51°17.896 2°53.142 357.2 0.7 211 9.1
2010-05-28 07:05:36 51°17.896 2°53.142 357.9 0.5 214 9
2010-05-28 07:05:41 51°17.895 2°53.141 -999 0.5 217 9.2
2010-05-28 07:05:46 51°17.895 2°53.141 1.6 0.5 211 9.3
2010-05-28 07:05:51 51°17.895 2°53.14 2.3 0.4 249 9.3
2010-05-28 07:05:56 51°17.895 2°53.139 3.3 0.3 306 9.2
2010-05-28 07:06:01 51°17.896 2°53.138 5.2 0.6 338 9.3
2010-05-28 07:06:06 51°17.897 2°53.138 7.7 0.9 349 9.2
2010-05-28 07:06:11 51°17.898 2°53.138 10.5 1.1 3 9.2
2010-05-28 07:06:16 51°17.9 2°53.139 13.8 1.4 9 9.1
2010-05-28 07:06:21 51°17.903 2°53.14 17.4 2.1 21 9.3
2010-05-28 07:06:26 51°17.906 2°53.142 22.6 2.6 24 9.1
2010-05-28 07:06:31 51°17.91 2°53.146 28.5 3.1 36 9.2
2010-05-28 07:06:36 51°17.914 2°53.151 35.2 3.4 42 9.3
2010-05-28 07:06:41 51°17.917 2°53.158 42.2 3.9 52 9.3
2010-05-28 07:06:46 51°17.92 2°53.166 49.8 4.2 62 9.4
2010-05-28 07:06:51 51°17.922 2°53.176 57.4 4.5 72 9.3
2010-05-28 07:06:56 51°17.923 2°53.186 65.1 4.8 77 9.3
2010-05-28 07:07:01 51°17.923 2°53.198 72.6 5.1 87 9.2
2010-05-28 07:07:06 51°17.922 2°53.21 79.2 5.5 95 9.3
2010-05-28 07:07:11 51°17.921 2°53.223 85 6 99 9.2
2010-05-28 07:07:16 51°17.918 2°53.238 91.8 6.5 105 9.4
2010-05-28 07:07:21 51°17.914 2°53.253 98.1 7.2 110 9.3
2010-05-28 07:07:26 51°17.911 2°53.269 100.8 7.5 108 9.3
2010-05-28 07:07:31 51°17.907 2°53.285 101 8 110 9.2
2010-05-28 07:07:36 51°17.904 2°53.303 100.7 8.3 107 9.2
2010-05-28 07:07:41 51°17.9 2°53.321 100 8.6 109 8.9
2010-05-28 07:07:46 51°17.896 2°53.34 100.3 8.8 108 9.1
2010-05-28 07:07:51 51°17.892 2°53.358 100.4 8.8 107 8.8
2010-05-28 07:07:56 51°17.889 2°53.376 99.6 8.7 108 9.1
2010-05-28 07:08:01 51°17.885 2°53.395 99.5 8.6 107 8.9
2010-05-28 07:08:06 51°17.882 2°53.413 99.4 8.5 106 9
2010-05-28 07:08:11 51°17.878 2°53.431 99.2 8.5 109 9
2010-05-28 07:08:16 51°17.875 2°53.448 99 8.1 105 8.9
2010-05-28 07:08:21 51°17.871 2°53.465 98.5 8.1 109 8.9
2010-05-28 07:08:26 51°17.868 2°53.482 99.3 8.1 106 8.9
2010-05-28 07:08:31 51°17.865 2°53.499 98.5 7.9 109 8.9
2010-05-28 07:08:36 51°17.862 2°53.516 99 7.9 108 8.9
2010-05-28 07:08:40 51°17.859 2°53.529 99.2 7.8 109 8.9
2010-05-28 07:08:46 51°17.855 2°53.548 99.3 7.6 107 8.8
2010-05-28 07:08:51 51°17.852 2°53.564 99.4 7.6 109 9
2010-05-28 07:08:56 51°17.849 2°53.579 99.3 7.3 106 8.7
2010-05-28 07:09:01 51°17.845 2°53.594 98.9 7 110 8.7
2010-05-28 07:09:06 51°17.843 2°53.608 98.9 6.7 107 8.8
2010-05-28 07:09:11 51°17.84 2°53.621 97.1 6.2 106 8.8
2010-05-28 07:09:16 51°17.839 2°53.634 93.9 5.7 99 8.7
2010-05-28 07:09:21 51°17.838 2°53.645 89.5 5.3 99 8.8
2010-05-28 07:09:26 51°17.838 2°53.656 84.8 4.9 92 8.8
2010-05-28 07:09:31 51°17.838 2°53.666 80.7 4.5 90 8.8
2010-05-28 07:09:36 51°17.838 2°53.675 76.6 4.3 86 8.8
2010-05-28 07:09:41 51°17.839 2°53.684 72.6 4 82 8.8
2010-05-28 07:09:46 51°17.84 2°53.691 68.7 3.6 81 8.7
2010-05-28 07:09:51 51°17.841 2°53.697 66 3.1 75 8.7
2010-05-28 07:09:56 51°17.842 2°53.703 63.4 2.6 80 8.9
2010-05-28 07:10:01 51°17.843 2°53.707 60.7 2 72 8.8
2010-05-28 07:10:06 51°17.843 2°53.711 58.2 1.3 86 8.9
2010-05-28 07:10:11 51°17.843 2°53.712 54.7 0.7 92 8.9
2010-05-28 07:10:16 51°17.842 2°53.713 50.2 0.6 150 8.8
2010-05-28 07:10:21 51°17.841 2°53.713 47 0.6 181 8.7
2010-05-28 07:10:26 51°17.84 2°53.714 45.6 0.8 163 8.7
2010-05-28 07:10:31 51°17.839 2°53.714 44.8 0.7 183 8.7
2010-05-28 07:10:36 51°17.838 2°53.714 44.5 0.8 169 8.8
2010-05-28 07:10:41 51°17.837 2°53.714 44.4 0.8 176 8.9
2010-05-28 07:10:46 51°17.836 2°53.714 43.8 0.7 180 8.9
2010-05-28 07:10:51 51°17.835 2°53.714 42.8 0.8 179 8.9
2010-05-28 07:10:56 51°17.834 2°53.714 41.8 0.7 190 8.9
2010-05-28 07:11:01 51°17.832 2°53.714 40.9 0.9 179 8.8
2010-05-28 07:11:06 51°17.831 2°53.713 39.4 0.7 191 8.8
2010-05-28 07:11:11 51°17.83 2°53.714 38.3 0.9 175 8.9
2010-05-28 07:11:16 51°17.829 2°53.713 37.1 0.8 193 8.8
2010-05-28 07:11:21 51°17.828 2°53.713 36.1 0.9 180 8.7
2010-05-28 07:11:26 51°17.827 2°53.712 34.8 0.8 201 8.6
2010-05-28 07:11:31 51°17.826 2°53.712 33.6 0.9 182 9
2010-05-28 07:11:36 51°17.825 2°53.711 32.2 0.9 201 9
2010-05-28 07:11:41 51°17.824 2°53.711 31.1 0.9 189 8.7
2010-05-28 07:11:46 51°17.822 2°53.711 30 0.9 197 8.8
2010-05-28 07:11:51 51°17.821 2°53.711 29 0.9 196 8.6
2010-05-28 07:11:56 51°17.82 2°53.71 27.9 0.8 197 8.9
2010-05-28 07:12:01 51°17.819 2°53.71 26.6 0.9 196 8.7
2010-05-28 07:12:06 51°17.817 2°53.709 25.5 0.8 196 8.7
2010-05-28 07:12:11 51°17.816 2°53.709 24.5 0.8 200 8.8
2010-05-28 07:12:16 51°17.815 2°53.708 23.8 0.8 198 9
2010-05-28 07:12:21 51°17.814 2°53.708 22.6 0.7 198 8.8
2010-05-28 07:12:26 51°17.814 2°53.707 21.7 0.4 190 8.8
2010-05-28 07:12:31 51°17.813 2°53.707 21.1 0.2 202 8.9
2010-05-28 07:12:36 51°17.813 2°53.707 20.4 -999 234 9
2010-05-28 07:12:41 51°17.813 2°53.707 19.4 0.1 5 8.9
2010-05-28 07:12:46 51°17.814 2°53.707 18.3 0.2 344 8.8
2010-05-28 07:12:51 51°17.814 2°53.708 17.3 0.2 12 9
2010-05-28 07:12:56 51°17.814 2°53.707 16.5 0.4 332 8.8
2010-05-28 07:13:01 51°17.814 2°53.707 15.6 0.3 328 8.7
2010-05-28 07:13:06 51°17.815 2°53.707 15.5 0.2 343 8.9
2010-05-28 07:13:11 51°17.815 2°53.706 14.8 0.2 327 8.9
2010-05-28 07:13:16 51°17.815 2°53.706 14 0.2 321 9
2010-05-28 07:13:21 51°17.815 2°53.706 13.4 0.3 308 8.8
2010-05-28 07:13:26 51°17.816 2°53.705 12.8 0.3 304 8.6
2010-05-28 07:13:31 51°17.816 2°53.705 12.4 0.2 298 8.7
2010-05-28 07:13:36 51°17.816 2°53.705 12.1 0.2 303 8.9
2010-05-28 07:13:41 51°17.816 2°53.704 11.7 0.3 280 8.8
2010-05-28 07:13:46 51°17.816 2°53.704 11.5 0.2 273 8.9
2010-05-28 07:13:51 51°17.816 2°53.704 11.2 0.2 275 8.7
2010-05-28 07:13:56 51°17.816 2°53.703 11.1 0.2 273 8.8
2010-05-28 07:14:01 51°17.816 2°53.703 11.4 0.2 271 8.9
2010-05-28 07:14:06 51°17.816 2°53.703 11.3 0.2 252 8.8
2010-05-28 07:14:11 51°17.815 2°53.702 11 0.2 268 8.9
2010-05-28 07:14:16 51°17.815 2°53.701 11 0.1 273 9
2010-05-28 07:14:21 51°17.816 2°53.701 10.9 0.2 283 8.8
2010-05-28 07:14:26 51°17.816 2°53.701 11 0.1 343 8.9
2010-05-28 07:14:31 51°17.816 2°53.701 11.1 0.2 306 9
2010-05-28 07:14:37 51°17.816 2°53.701 11.4 0.1 329 8.9
2010-05-28 07:14:41 51°17.816 2°53.7 11.4 0.2 309 8.9
2010-05-28 07:14:46 51°17.816 2°53.7 11.8 0.2 356 9.1
2010-05-28 07:14:51 51°17.816 2°53.7 11.7 0.2 319 8.9
2010-05-28 07:14:57 51°17.817 2°53.7 11.7 0.1 328 9
2010-05-28 07:15:01 51°17.817 2°53.699 11.8 0.2 300 9
2010-05-28 07:15:06 51°17.817 2°53.699 11.7 0.2 318 9
2010-05-28 07:15:12 51°17.817 2°53.699 11.6 0.2 307 9
2010-05-28 07:15:16 51°17.817 2°53.698 11.6 0.2 323 9
2010-05-28 07:15:21 51°17.817 2°53.698 11.1 0.2 315 9
2010-05-28 07:15:26 51°17.818 2°53.697 11.1 0.2 313 8.9
2010-05-28 07:15:31 51°17.818 2°53.697 10.9 0.2 311 8.9
2010-05-28 07:15:37 51°17.818 2°53.697 10.7 0.2 309 8.9
2010-05-28 07:15:41 51°17.818 2°53.697 10.6 0.2 304 8.8
2010-05-28 07:15:46 51°17.818 2°53.697 10.9 0.1 337 8.9
2010-05-28 07:15:51 51°17.819 2°53.696 11 0.2 295 8.9
2010-05-28 07:15:56 51°17.819 2°53.696 11.1 0.2 319 9
2010-05-28 07:16:01 51°17.819 2°53.695 11 0.2 317 9
2010-05-28 07:16:06 51°17.819 2°53.695 10.8 0.2 324 8.9
2010-05-28 07:16:11 51°17.819 2°53.694 10.9 0.2 318 8.9
2010-05-28 07:16:16 51°17.82 2°53.694 11.1 0.2 322 8.9
2010-05-28 07:16:21 51°17.82 2°53.694 11.3 0.2 329 8.9
2010-05-28 07:16:26 51°17.82 2°53.694 11.6 0.2 343 9
2010-05-28 07:16:31 51°17.82 2°53.694 11.5 0.2 328 8.8
2010-05-28 07:16:36 51°17.82 2°53.694 11.7 0.1 337 8.9
2010-05-28 07:16:41 51°17.82 2°53.693 12.2 0.1 340 9
2010-05-28 07:16:46 51°17.82 2°53.693 12.4 0.1 307 9.1
2010-05-28 07:16:51 51°17.821 2°53.693 12.4 0.2 312 9
2010-05-28 07:16:56 51°17.821 2°53.692 12.4 0.1 304 8.9
2010-05-28 07:17:01 51°17.821 2°53.692 12.6 0.2 298 8.9
2010-05-28 07:17:06 51°17.821 2°53.692 12.8 -999 323 8.8
2010-05-28 07:17:11 51°17.821 2°53.692 12.9 0.1 337 9
2010-05-28 07:17:16 51°17.821 2°53.692 13.5 0.1 316 9
2010-05-28 07:17:21 51°17.822 2°53.692 13.9 0.1 304 9
2010-05-28 07:17:26 51°17.822 2°53.691 14 0.1 299 8.8
2010-05-28 07:17:31 51°17.822 2°53.691 14.2 0.1 320 8.8
2010-05-28 07:17:36 51°17.822 2°53.692 14.5 -999 243 9
2010-05-28 07:17:41 51°17.822 2°53.692 14.7 -999 123 8.9
2010-05-28 07:17:46 51°17.822 2°53.692 14.7 -999 174 8.9
2010-05-28 07:17:51 51°17.822 2°53.691 15 0.1 271 8.9
2010-05-28 07:17:56 51°17.822 2°53.691 15.2 0.1 265 9
2010-05-28 07:18:01 51°17.822 2°53.691 15.5 0.1 282 8.9
2010-05-28 07:18:06 51°17.821 2°53.691 15.6 -999 118 8.8
2010-05-28 07:18:11 51°17.821 2°53.691 16.1 0.1 94 9.1
2010-05-28 07:18:16 51°17.821 2°53.691 16.1 -999 165 9
2010-05-28 07:18:21 51°17.821 2°53.691 16.4 -999 232 8.9
2010-05-28 07:18:26 51°17.821 2°53.691 16.9 0.1 264 8.9
2010-05-28 07:18:31 51°17.821 2°53.691 17.3 -999 26 9
2010-05-28 07:18:36 51°17.821 2°53.691 17.4 -999 134 9
2010-05-28 07:18:41 51°17.821 2°53.691 17.5 -999 119 9
2010-05-28 07:18:46 51°17.821 2°53.691 17.9 -999 161 8.9
2010-05-28 07:18:51 51°17.821 2°53.691 18.1 -999 107 9.1
2010-05-28 07:18:56 51°17.821 2°53.691 18.2 0.1 297 9
2010-05-28 07:19:01 51°17.821 2°53.691 18.1 -999 99 9
2010-05-28 07:19:06 51°17.821 2°53.691 18.1 0.1 303 8.9
2010-05-28 07:19:11 51°17.821 2°53.691 17.9 0.1 86 9.1
2010-05-28 07:19:16 51°17.821 2°53.691 17.9 -999 289 9.1
2010-05-28 07:19:21 51°17.821 2°53.691 17.6 0.1 26 9.1
2010-05-28 07:19:26 51°17.821 2°53.691 17.4 0.1 337 8.9
2010-05-28 07:19:31 51°17.822 2°53.691 17 -999 357 8.8
2010-05-28 07:19:36 51°17.822 2°53.691 16.9 0.1 341 8.9
2010-05-28 07:19:41 51°17.822 2°53.691 16.6 -999 290 9
2010-05-28 07:19:46 51°17.822 2°53.692 16.6 0.1 339 9
2010-05-28 07:19:51 51°17.822 2°53.691 16.4 0.1 337 8.8
2010-05-28 07:19:56 51°17.822 2°53.691 16.1 0.1 353 8.9
2010-05-28 07:20:01 51°17.823 2°53.691 16.3 0.1 322 9.1
2010-05-28 07:20:06 51°17.823 2°53.691 16.3 0.1 332 9.1
2010-05-28 07:20:11 51°17.823 2°53.691 16.1 0.1 320 8.8
2010-05-28 07:20:16 51°17.823 2°53.691 16 0.1 32 9
2010-05-28 07:20:21 51°17.823 2°53.691 16.3 0.1 2 9.2
2010-05-28 07:20:26 51°17.823 2°53.692 16.6 0.1 15 8.9
2010-05-28 07:20:31 51°17.823 2°53.692 16.4 0.1 331 8.9
2010-05-28 07:20:36 51°17.823 2°53.692 16.5 -999 151 8.9
2010-05-28 07:20:41 51°17.823 2°53.691 16.4 -999 321 9.1
2010-05-28 07:20:46 51°17.823 2°53.691 16 0.1 271 8.9
2010-05-28 07:20:51 51°17.823 2°53.691 16.1 0.1 286 9.1
2010-05-28 07:20:56 51°17.823 2°53.691 15.9 0.1 142 8.9
2010-05-28 07:21:01 51°17.823 2°53.691 15.9 0.1 108 8.9
2010-05-28 07:21:06 51°17.823 2°53.691 16.2 -999 136 8.9
2010-05-28 07:21:11 51°17.823 2°53.691 16.8 0.1 289 9.1
2010-05-28 07:21:16 51°17.823 2°53.691 16.8 0.1 231 8.9
2010-05-28 07:21:21 51°17.823 2°53.691 16.8 0.1 157 9
2010-05-28 07:21:26 51°17.823 2°53.691 16.8 -999 253 9
2010-05-28 07:21:31 51°17.823 2°53.691 16.7 -999 33 8.9
2010-05-28 07:21:36 51°17.823 2°53.69 16.8 0.1 271 9.1
2010-05-28 07:21:41 51°17.823 2°53.69 16.8 0.1 86 9.1
2010-05-28 07:21:46 51°17.823 2°53.69 17 0.1 311 9.1
2010-05-28 07:21:51 51°17.823 2°53.691 17.1 0.1 324 9
2010-05-28 07:21:56 51°17.823 2°53.691 17.2 -999 69 8.8
2010-05-28 07:22:01 51°17.823 2°53.691 17.5 0.1 93 9
2010-05-28 07:22:06 51°17.823 2°53.69 17.4 -999 198 9
2010-05-28 07:22:11 51°17.823 2°53.69 17.7 -999 85 9.1
2010-05-28 07:22:16 51°17.823 2°53.69 17.7 0.1 286 9.1
2010-05-28 07:22:21 51°17.823 2°53.69 17.7 0.1 127 8.8
2010-05-28 07:22:26 51°17.823 2°53.69 17.4 0.1 241 8.9
2010-05-28 07:22:31 51°17.823 2°53.69 17.4 0.1 173 9.1
2010-05-28 07:22:36 51°17.823 2°53.69 17.3 -999 153 9.1
2010-05-28 07:22:41 51°17.823 2°53.69 16.9 -999 90 9.1
2010-05-28 07:22:45 51°17.823 2°53.69 16.9 0.1 202 8.9
2010-05-28 07:22:52 51°17.823 2°53.69 17 -999 198 8.9
2010-05-28 07:22:57 51°17.823 2°53.69 17.3 -999 101 9.1
2010-05-28 07:23:01 51°17.823 2°53.69 17.2 -999 272 9
2010-05-28 07:23:07 51°17.823 2°53.69 17.1 0.1 158 9
2010-05-28 07:23:12 51°17.823 2°53.69 17.1 -999 319 9
2010-05-28 07:23:17 51°17.823 2°53.69 16.9 -999 39 9.1
2010-05-28 07:23:21 51°17.823 2°53.69 16.8 0.1 314 8.9
2010-05-28 07:23:26 51°17.823 2°53.69 16.8 0.1 82 9
2010-05-28 07:23:31 51°17.823 2°53.69 16.7 0.1 290 9.1
2010-05-28 07:23:37 51°17.823 2°53.69 16.8 0.1 26 8.9
2010-05-28 07:23:42 51°17.823 2°53.69 16.3 0.1 279 9.1
2010-05-28 07:23:46 51°17.823 2°53.69 16.3 -999 55 8.9
2010-05-28 07:23:51 51°17.823 2°53.69 16.2 0.1 314 9
2010-05-28 07:23:57 51°17.823 2°53.69 15.9 -999 82 9
2010-05-28 07:24:02 51°17.823 2°53.69 16 0.1 78 9
2010-05-28 07:24:06 51°17.823 2°53.69 15.7 -999 55 9
2010-05-28 07:24:11 51°17.824 2°53.69 16 0.1 33 9
2010-05-28 07:24:17 51°17.824 2°53.69 15.9 -999 58 9.1
2010-05-28 07:24:21 51°17.824 2°53.69 16.1 -999 32 9
2010-05-28 07:24:26 51°17.824 2°53.69 16.1 -999 133 8.9
2010-05-28 07:24:31 51°17.824 2°53.69 15.8 -999 274 9
2010-05-28 07:24:36 51°17.824 2°53.689 16.1 0.1 324 9.2
2010-05-28 07:24:41 51°17.824 2°53.689 15.7 0.1 310 8.9
2010-05-28 07:24:46 51°17.824 2°53.69 15.6 -999 358 9
2010-05-28 07:24:50 51°17.823 2°53.69 15.3 0.1 273 9
2010-05-28 07:24:56 51°17.823 2°53.69 15.4 -999 307 9
2010-05-28 07:25:01 51°17.823 2°53.69 15.3 0.1 270 8.9
2010-05-28 07:25:06 51°17.823 2°53.69 15.2 -999 183 8.9
2010-05-28 07:25:11 51°17.823 2°53.69 15.6 -999 237 8.9
2010-05-28 07:25:16 51°17.823 2°53.69 15.7 -999 84 9
2010-05-28 07:25:21 51°17.823 2°53.69 16.5 0.1 306 9
2010-05-28 07:25:26 51°17.823 2°53.69 16.4 -999 48 9.1
2010-05-28 07:25:31 51°17.823 2°53.69 16.6 0.1 272 9
2010-05-28 07:25:36 51°17.823 2°53.69 16.5 0.1 289 8.9
2010-05-28 07:25:41 51°17.823 2°53.69 16.7 -999 114 9
2010-05-28 07:25:46 51°17.823 2°53.69 16.6 0.1 286 9.1
2010-05-28 07:25:51 51°17.823 2°53.69 17 -999 36 9.1
2010-05-28 07:25:56 51°17.823 2°53.69 16.9 0.1 318 8.8
2010-05-28 07:26:01 51°17.823 2°53.69 17.3 0.1 79 9.1
2010-05-28 07:26:06 51°17.823 2°53.69 17.5 -999 299 9
2010-05-28 07:26:11 51°17.823 2°53.69 17.7 -999 71 8.9
2010-05-28 07:26:16 51°17.823 2°53.69 17.6 0.1 127 8.9
2010-05-28 07:26:21 51°17.823 2°53.69 17.9 0.1 125 9.1
2010-05-28 07:26:26 51°17.823 2°53.691 17.8 0.1 139 9
2010-05-28 07:26:31 51°17.823 2°53.69 18.1 0.1 126 9.2
2010-05-28 07:26:36 51°17.823 2°53.69 18.2 -999 236 8.9
2010-05-28 07:26:42 51°17.823 2°53.69 17.9 -999 248 8.9
2010-05-28 07:26:46 51°17.823 2°53.69 17.8 -999 198 9
2010-05-28 07:26:50 51°17.823 2°53.69 17.6 0.1 177 9.1
2010-05-28 07:26:56 51°17.823 2°53.689 17.5 0.1 215 9.1
2010-05-28 07:27:01 51°17.823 2°53.689 17.3 0.1 265 8.8
2010-05-28 07:27:06 51°17.823 2°53.689 17.3 -999 101 8.9
2010-05-28 07:27:12 51°17.823 2°53.69 17.4 -999 240 8.9
2010-05-28 07:27:16 51°17.823 2°53.69 17.4 -999 122 9.1
2010-05-28 07:27:21 51°17.823 2°53.69 17.6 -999 325 9
2010-05-28 07:27:26 51°17.823 2°53.689 17.7 0.1 338 9.1
2010-05-28 07:27:31 51°17.823 2°53.689 17.8 0.1 284 9.1
2010-05-28 07:27:36 51°17.823 2°53.689 18 -999 62 9.1
2010-05-28 07:27:41 51°17.823 2°53.689 18.2 0.1 50 9.2
2010-05-28 07:27:45 51°17.823 2°53.689 18.2 0.1 313 9
2010-05-28 07:27:51 51°17.823 2°53.69 18.2 0.1 65 8.9
2010-05-28 07:27:56 51°17.823 2°53.689 18.3 0.1 267 9.1
2010-05-28 07:28:01 51°17.823 2°53.69 18.3 0.1 108 9.2
2010-05-28 07:28:07 51°17.823 2°53.69 18.5 0.1 295 8.9
2010-05-28 07:28:11 51°17.823 2°53.69 18.4 0.1 74 9
2010-05-28 07:28:16 51°17.823 2°53.689 18.5 0.1 308 9.1
2010-05-28 07:28:22 51°17.824 2°53.689 18.5 -999 62 9
2010-05-28 07:28:27 51°17.824 2°53.689 18.4 0.1 294 9
2010-05-28 07:28:31 51°17.823 2°53.689 18.2 -999 161 9
2010-05-28 07:28:36 51°17.823 2°53.689 18 0.1 202 9
2010-05-28 07:28:42 51°17.823 2°53.689 17.9 -999 160 9.1
2010-05-28 07:28:47 51°17.823 2°53.689 17.5 -999 160 9.2
2010-05-28 07:28:51 51°17.823 2°53.69 17.3 0.1 109 9
2010-05-28 07:28:56 51°17.823 2°53.69 17.2 0.1 163 9
2010-05-28 07:29:02 51°17.823 2°53.69 17.5 0.1 126 9
2010-05-28 07:29:07 51°17.823 2°53.69 17.6 -999 207 9
2010-05-28 07:29:11 51°17.823 2°53.69 17.2 -999 154 9
2010-05-28 07:29:17 51°17.823 2°53.69 16.9 -999 193 9.1
2010-05-28 07:29:21 51°17.823 2°53.69 16.6 0.1 246 9
2010-05-28 07:29:27 51°17.823 2°53.69 16.1 0.1 90 9.1
2010-05-28 07:29:31 51°17.823 2°53.69 15.5 0.1 305 9
2010-05-28 07:29:36 51°17.823 2°53.69 15.3 0.1 62 9
2010-05-28 07:29:41 51°17.823 2°53.69 15.1 -999 314 9.1
2010-05-28 07:29:47 51°17.823 2°53.69 15 -999 69 8.9
2010-05-28 07:29:51 51°17.823 2°53.69 15.1 0.1 326 9
2010-05-28 07:29:56 51°17.824 2°53.69 15.2 0.1 325 9
2010-05-28 07:30:01 51°17.824 2°53.689 15.2 0.1 332 9.1
2010-05-28 07:30:07 51°17.824 2°53.689 15.1 0.1 318 9.1
2010-05-28 07:30:11 51°17.824 2°53.689 15.1 -999 339 8.9
2010-05-28 07:30:16 51°17.824 2°53.689 15.1 0.1 318 8.9
2010-05-28 07:30:22 51°17.824 2°53.689 15.3 0.1 331 9.2
2010-05-28 07:30:26 51°17.824 2°53.689 15.4 -999 356 9
2010-05-28 07:30:31 51°17.824 2°53.689 15.7 0.1 356 9.1
2010-05-28 07:30:37 51°17.824 2°53.689 15.6 0.1 294 9
2010-05-28 07:30:42 51°17.824 2°53.689 15.7 0.1 329 9.1
2010-05-28 07:30:47 51°17.825 2°53.689 15.5 0.1 311 9.1
2010-05-28 07:30:51 51°17.825 2°53.689 15.8 0.1 49 9
2010-05-28 07:30:56 51°17.825 2°53.689 15.5 0.1 311 8.9
2010-05-28 07:31:02 51°17.824 2°53.69 16 0.1 96 9.1
2010-05-28 07:31:07 51°17.825 2°53.689 16 0.1 294 9.2
2010-05-28 07:31:11 51°17.825 2°53.69 15.8 -999 49 9
2010-05-28 07:31:16 51°17.825 2°53.69 15.7 -999 336 8.9
2010-05-28 07:31:22 51°17.825 2°53.69 16.1 0.1 262 9.1
2010-05-28 07:31:27 51°17.825 2°53.689 16.1 -999 222 9
2010-05-28 07:31:31 51°17.825 2°53.689 15.9 0.1 288 9.1
2010-05-28 07:31:37 51°17.825 2°53.689 15.3 0.1 238 9
2010-05-28 07:31:41 51°17.825 2°53.689 15.2 -999 304 9.2
2010-05-28 07:31:47 51°17.825 2°53.689 14.8 0.1 303 9
2010-05-28 07:31:51 51°17.825 2°53.689 14.9 0.1 97 9
2010-05-28 07:31:56 51°17.824 2°53.689 15.1 -999 174 8.9
2010-05-28 07:32:01 51°17.825 2°53.689 15 0.1 23 9
2010-05-28 07:32:07 51°17.825 2°53.689 14.8 0.1 343 9
2010-05-28 07:32:11 51°17.825 2°53.689 15.1 -999 9 9
2010-05-28 07:32:16 51°17.825 2°53.689 15.2 0.1 109 9.1
2010-05-28 07:32:22 51°17.825 2°53.689 15.3 -999 185 9.1
2010-05-28 07:32:27 51°17.825 2°53.689 15.3 0.1 76 9.1
2010-05-28 07:32:31 51°17.825 2°53.689 15.1 -999 316 8.9
2010-05-28 07:32:37 51°17.825 2°53.689 15 -999 18 8.9
2010-05-28 07:32:41 51°17.825 2°53.689 14.8 0.1 315 9
2010-05-28 07:32:47 51°17.825 2°53.688 14.7 0.1 308 9
2010-05-28 07:32:51 51°17.825 2°53.688 15 -999 298 9.1
2010-05-28 07:32:57 51°17.825 2°53.688 14.8 -999 324 9.1
2010-05-28 07:33:01 51°17.825 2°53.688 14.8 0.1 301 9
2010-05-28 07:33:07 51°17.825 2°53.688 15.2 0.1 331 9.1
2010-05-28 07:33:11 51°17.826 2°53.688 15.4 0.1 344 9.1
2010-05-28 07:33:17 51°17.825 2°53.688 15.6 -999 293 9.1
2010-05-28 07:33:22 51°17.825 2°53.688 15.9 0.1 27 9
2010-05-28 07:33:27 51°17.825 2°53.688 15.8 0.1 342 8.9
2010-05-28 07:33:31 51°17.826 2°53.688 15.6 0.2 319 9
2010-05-28 07:33:36 51°17.826 2°53.688 15.6 0.1 345 9.1
2010-05-28 07:33:42 51°17.826 2°53.688 15.5 0.1 327 9.1
2010-05-28 07:33:47 51°17.826 2°53.688 14.9 0.1 320 8.9
2010-05-28 07:33:51 51°17.826 2°53.688 15 0.1 359 9.1
2010-05-28 07:33:57 51°17.826 2°53.688 15.1 0.1 313 9
2010-05-28 07:34:01 51°17.826 2°53.688 15.1 0.1 83 9.2
2010-05-28 07:34:07 51°17.826 2°53.688 15.3 0.2 293 9
2010-05-28 07:34:11 51°17.826 2°53.688 15.5 0.1 71 9
2010-05-28 07:34:17 51°17.826 2°53.688 15.8 0.1 299 9
2010-05-28 07:34:22 51°17.826 2°53.688 16.1 0.1 136 9.2
2010-05-28 07:34:26 51°17.826 2°53.687 16.4 0.1 294 9.2
2010-05-28 07:34:31 51°17.826 2°53.687 16.2 -999 134 9.1
2010-05-28 07:34:36 51°17.826 2°53.688 16.3 -999 223 9.2
2010-05-28 07:34:41 51°17.826 2°53.688 16.4 0.1 184 9.1
2010-05-28 07:34:46 51°17.826 2°53.688 16.6 -999 244 8.9
2010-05-28 07:34:52 51°17.826 2°53.687 16.6 0.1 297 9.1
2010-05-28 07:34:56 51°17.826 2°53.687 16.7 0.1 329 9
2010-05-28 07:35:01 51°17.826 2°53.687 16.9 -999 118 9.1
2010-05-28 07:35:06 51°17.826 2°53.687 17 0.1 138 9.1
2010-05-28 07:35:11 51°17.826 2°53.687 17.1 -999 315 8.9
2010-05-28 07:35:17 51°17.826 2°53.687 16.9 -999 77 9
2010-05-28 07:35:22 51°17.826 2°53.687 17.3 -999 226 9.1
2010-05-28 07:35:27 51°17.826 2°53.687 17.1 -999 69 9
2010-05-28 07:35:31 51°17.826 2°53.687 16.8 -999 270 9.1
2010-05-28 07:35:37 51°17.826 2°53.687 16.5 -999 267 9
2010-05-28 07:35:42 51°17.826 2°53.688 16.8 0.1 89 9.1
2010-05-28 07:35:46 51°17.826 2°53.688 16.9 -999 219 9.2
2010-05-28 07:35:51 51°17.826 2°53.688 17.1 -999 15 9.2
2010-05-28 07:35:56 51°17.826 2°53.688 16.9 0.1 327 9
2010-05-28 07:36:02 51°17.826 2°53.688 16.7 0.2 339 9.1
2010-05-28 07:36:06 51°17.825 2°53.688 16.4 0.1 97 9
2010-05-28 07:36:11 51°17.825 2°53.688 16.7 -999 60 9.1
2010-05-28 07:36:17 51°17.825 2°53.688 16.6 -999 288 9.1
2010-05-28 07:36:21 51°17.825 2°53.688 16.7 -999 351 9.1
2010-05-28 07:36:27 51°17.825 2°53.688 16.7 -999 111 9.1
2010-05-28 07:36:31 51°17.825 2°53.688 16.7 -999 96 9
2010-05-28 07:36:37 51°17.825 2°53.688 16.7 -999 256 9
2010-05-28 07:36:42 51°17.825 2°53.688 16.8 0.1 16 9.1
2010-05-28 07:36:46 51°17.825 2°53.688 16.8 0.1 289 9
2010-05-28 07:36:51 51°17.825 2°53.688 16.9 0.1 94 9.1
2010-05-28 07:36:56 51°17.825 2°53.688 16.9 0.1 274 9.1
2010-05-28 07:37:02 51°17.825 2°53.688 17 -999 101 9
2010-05-28 07:37:06 51°17.825 2°53.688 17.1 -999 113 9.2
2010-05-28 07:37:11 51°17.825 2°53.688 16.8 0.1 246 9.2
2010-05-28 07:37:17 51°17.825 2°53.688 16.8 0.1 119 9.2
2010-05-28 07:37:21 51°17.825 2°53.688 16.3 0.1 253 9.1
2010-05-28 07:37:27 51°17.825 2°53.688 16.4 0.1 109 9.2
2010-05-28 07:37:31 51°17.825 2°53.688 16.2 -999 219 9
2010-05-28 07:37:37 51°17.825 2°53.688 16.2 0.1 81 9.1
2010-05-28 07:37:41 51°17.825 2°53.688 16.1 0.2 291 9
2010-05-28 07:37:47 51°17.825 2°53.688 16.1 0.1 68 9.1
2010-05-28 07:37:51 51°17.825 2°53.688 16 0.2 300 9.1
2010-05-28 07:37:56 51°17.825 2°53.688 15.9 0.1 115 9.2
2010-05-28 07:38:01 51°17.825 2°53.688 16 0.1 257 9.1
2010-05-28 07:38:06 51°17.825 2°53.688 16 0.2 74 9.1
2010-05-28 07:38:11 51°17.826 2°53.688 16.1 0.2 311 9.1
2010-05-28 07:38:16 51°17.826 2°53.688 16.1 0.1 62 9.1
2010-05-28 07:38:21 51°17.826 2°53.688 16 0.1 311 9
2010-05-28 07:38:26 51°17.826 2°53.688 15.9 0.1 45 9.2
2010-05-28 07:38:31 51°17.826 2°53.688 16.1 0.1 323 9.2
2010-05-28 07:38:36 51°17.826 2°53.688 16.5 0.1 347 9.1
2010-05-28 07:38:41 51°17.826 2°53.688 16.2 0.1 320 9
2010-05-28 07:38:46 51°17.826 2°53.688 16.3 0.1 326 9.1
2010-05-28 07:38:51 51°17.826 2°53.688 15.9 0.1 240 9.1
2010-05-28 07:38:56 51°17.826 2°53.688 15.6 0.1 269 9.2
2010-05-28 07:39:01 51°17.826 2°53.688 15.6 0.1 218 9
2010-05-28 07:39:06 51°17.826 2°53.687 15.7 0.1 343 9
2010-05-28 07:39:11 51°17.826 2°53.687 15.9 0.1 333 9.1
2010-05-28 07:39:16 51°17.826 2°53.687 16.1 0.2 334 9.2
2010-05-28 07:39:21 51°17.826 2°53.687 16.3 0.1 320 9.1
2010-05-28 07:39:26 51°17.826 2°53.687 16.6 0.2 307 9.2
2010-05-28 07:39:31 51°17.826 2°53.687 16.9 0.1 320 9.1
2010-05-28 07:39:36 51°17.826 2°53.687 17.3 0.1 79 9
2010-05-28 07:39:41 51°17.826 2°53.687 17.5 -999 118 9.1
2010-05-28 07:39:46 51°17.826 2°53.687 18.1 0.1 58 9.2
2010-05-28 07:39:51 51°17.826 2°53.687 18.5 -999 245 9.2
2010-05-28 07:39:56 51°17.825 2°53.687 18.6 0.1 235 9.2
2010-05-28 07:40:01 51°17.825 2°53.687 18.8 0.2 170 9.1
2010-05-28 07:40:06 51°17.825 2°53.687 19 0.1 137 9.2
2010-05-28 07:40:11 51°17.825 2°53.687 18.8 0.1 245 9.1
2010-05-28 07:40:16 51°17.825 2°53.687 18.9 0.1 140 8.9
2010-05-28 07:40:21 51°17.826 2°53.687 18.8 0.1 233 9
2010-05-28 07:40:26 51°17.826 2°53.687 19 0.1 119 9.1
2010-05-28 07:40:31 51°17.826 2°53.687 19.4 -999 276 9.1
2010-05-28 07:40:36 51°17.825 2°53.687 19.6 0.1 162 9.2
2010-05-28 07:40:41 51°17.825 2°53.687 19.6 0.1 222 9.1
2010-05-28 07:40:46 51°17.825 2°53.687 19.7 0.1 356 9
2010-05-28 07:40:51 51°17.825 2°53.687 19.7 0.1 33 9.1
2010-05-28 07:40:56 51°17.825 2°53.687 20.2 -999 299 9.1
2010-05-28 07:41:01 51°17.825 2°53.687 20.7 0.1 126 8.9
2010-05-28 07:41:06 51°17.825 2°53.687 21.1 0.1 136 9
2010-05-28 07:41:11 51°17.825 2°53.688 21.4 0.1 125 9.3
2010-05-28 07:41:16 51°17.825 2°53.687 21.9 -999 171 9.2
2010-05-28 07:41:21 51°17.825 2°53.688 21.8 -999 87 9
2010-05-28 07:41:26 51°17.825 2°53.688 21.8 -999 179 9
2010-05-28 07:41:31 51°17.824 2°53.688 21.9 0.2 169 9.2
2010-05-28 07:41:36 51°17.824 2°53.688 21.8 0.2 184 9.1
2010-05-28 07:41:41 51°17.824 2°53.688 21.9 0.2 147 9.4
2010-05-28 07:41:46 51°17.824 2°53.688 21.7 0.1 187 9.2
2010-05-28 07:41:51 51°17.824 2°53.688 21.1 -999 133 9.1
2010-05-28 07:41:55 51°17.824 2°53.688 20.6 0.1 200 9.1
2010-05-28 07:42:01 51°17.824 2°53.688 20.1 0.1 202 9
2010-05-28 07:42:06 51°17.824 2°53.688 19.8 0.1 168 9
2010-05-28 07:42:11 51°17.824 2°53.688 19.1 0.1 186 9.1
2010-05-28 07:42:16 51°17.824 2°53.688 18.8 -999 163 9.2
2010-05-28 07:42:21 51°17.824 2°53.688 18.7 0.1 4 9.1
2010-05-28 07:42:26 51°17.824 2°53.688 18.4 0.1 331 9.1
2010-05-28 07:42:31 51°17.825 2°53.688 18.4 0.2 10 9.3
2010-05-28 07:42:36 51°17.824 2°53.688 18.4 0.1 13 9.1
2010-05-28 07:42:41 51°17.824 2°53.688 18.6 0.1 82 9.3
2010-05-28 07:42:46 51°17.824 2°53.688 19 0.1 23 9.2
2010-05-28 07:42:51 51°17.824 2°53.688 18.7 0.1 1 9.1
2010-05-28 07:42:56 51°17.825 2°53.688 18.3 0.1 356 9.1
2010-05-28 07:43:01 51°17.825 2°53.688 17.8 0.1 339 9
2010-05-28 07:43:06 51°17.825 2°53.688 17.5 0.1 334 9.1
2010-05-28 07:43:11 51°17.825 2°53.688 17.5 0.1 23 9.2
2010-05-28 07:43:16 51°17.825 2°53.688 17.5 0.1 359 9.3
2010-05-28 07:43:21 51°17.826 2°53.688 17.5 0.2 357 9.2
2010-05-28 07:43:26 51°17.826 2°53.688 17.3 0.1 348 9.1
2010-05-28 07:43:31 51°17.826 2°53.688 17.7 -999 295 9.1
2010-05-28 07:43:36 51°17.826 2°53.688 17.7 0.1 330 9.1
2010-05-28 07:43:41 51°17.826 2°53.688 17.9 0.1 132 9.2
2010-05-28 07:43:46 51°17.826 2°53.688 18.1 -999 261 9.2
2010-05-28 07:43:52 51°17.826 2°53.688 17.8 0.1 352 9.1
2010-05-28 07:43:56 51°17.826 2°53.687 17.6 0.1 340 9
2010-05-28 07:44:01 51°17.826 2°53.687 17.1 0.1 224 9.1
2010-05-28 07:44:06 51°17.826 2°53.687 17 0.1 208 8.9
2010-05-28 07:44:10 51°17.826 2°53.688 17.3 -999 25 9.2
2010-05-28 07:44:15 51°17.826 2°53.688 17.3 0.1 341 9.3
2010-05-28 07:44:21 51°17.826 2°53.688 17.2 -999 50 9.2
2010-05-28 07:44:26 51°17.826 2°53.688 17.2 0.1 37 9.1
2010-05-28 07:44:30 51°17.826 2°53.688 16.7 -999 321 9.2
2010-05-28 07:44:37 51°17.825 2°53.688 17 -999 163 9.2
2010-05-28 07:44:42 51°17.825 2°53.688 16.8 -999 284 9.2
2010-05-28 07:44:47 51°17.826 2°53.688 16.8 0.1 280 9
2010-05-28 07:44:52 51°17.826 2°53.688 16.9 -999 278 9.1
2010-05-28 07:44:56 51°17.826 2°53.688 17 0.1 277 9.1
2010-05-28 07:45:01 51°17.826 2°53.688 16.9 0.1 49 9.3
2010-05-28 07:45:07 51°17.826 2°53.688 17.2 0.1 15 9.3
2010-05-28 07:45:11 51°17.826 2°53.688 17 0.1 330 9.2
2010-05-28 07:45:16 51°17.826 2°53.688 17.3 0.1 -999 9.1
2010-05-28 07:45:21 51°17.826 2°53.688 17.2 0.1 278 9.1
2010-05-28 07:45:27 51°17.826 2°53.687 17.3 -999 218 9.2
2010-05-28 07:45:31 51°17.826 2°53.687 17.2 0.1 262 9.2
2010-05-28 07:45:36 51°17.826 2°53.687 17.1 0.1 79 9.2
2010-05-28 07:45:41 51°17.827 2°53.687 17 0.2 303 9.2
2010-05-28 07:45:47 51°17.827 2°53.687 17.4 0.1 36 9.3
2010-05-28 07:45:52 51°17.827 2°53.687 17.7 0.1 301 9.2
2010-05-28 07:45:56 51°17.827 2°53.687 17.8 0.1 85 9.1
2010-05-28 07:46:01 51°17.827 2°53.687 18 0.1 308 9.2
2010-05-28 07:46:07 51°17.827 2°53.687 18.2 -999 75 9.2
2010-05-28 07:46:11 51°17.827 2°53.687 18.2 0.1 280 9.2
2010-05-28 07:46:16 51°17.827 2°53.687 18.2 -999 120 9.1
2010-05-28 07:46:21 51°17.827 2°53.687 18.8 0.1 352 9.2
2010-05-28 07:46:27 51°17.827 2°53.687 19.2 -999 106 9.2
2010-05-28 07:46:32 51°17.828 2°53.686 19.4 0.1 28 9
2010-05-28 07:46:36 51°17.828 2°53.686 19.5 0.1 41 9.2
2010-05-28 07:46:41 51°17.828 2°53.686 20.1 0.1 34 9.3
2010-05-28 07:46:46 51°17.828 2°53.686 20.3 -999 252 9.1
2010-05-28 07:46:51 51°17.828 2°53.686 20.1 -999 156 9.2
2010-05-28 07:46:56 51°17.828 2°53.686 20 0.1 187 9.2
2010-05-28 07:47:01 51°17.828 2°53.686 19.7 0.1 139 9.1
2010-05-28 07:47:06 51°17.828 2°53.686 19.4 0.1 162 9.2
2010-05-28 07:47:11 51°17.827 2°53.686 19.8 0.1 181 9.2
2010-05-28 07:47:16 51°17.827 2°53.686 20 0.1 214 9.1
2010-05-28 07:47:21 51°17.827 2°53.686 20.1 -999 144 9.2
2010-05-28 07:47:26 51°17.827 2°53.686 19.9 0.1 214 9.1
2010-05-28 07:47:31 51°17.827 2°53.686 19.8 -999 180 9.2